createdAt,value
2022-11-18T00:01:22.206Z,14.18
2022-11-18T00:03:50.291Z,14.73
2022-11-18T00:06:19.767Z,13.63
2022-11-18T00:08:46.557Z,13.20
2022-11-18T00:11:38.508Z,16.08
2022-11-18T00:14:19.267Z,12.85
2022-11-18T00:17:01.158Z,13.98
2022-11-18T00:19:36.499Z,13.85
2022-11-18T00:22:04.159Z,13.93
2022-11-18T00:24:31.295Z,11.52
2022-11-18T00:26:57.994Z,14.27
2022-11-18T00:29:28.749Z,11.35
2022-11-18T00:31:56.282Z,12.88
2022-11-18T00:34:23.390Z,13.63
2022-11-18T00:36:50.241Z,13.15
2022-11-18T00:39:19.935Z,13.73
2022-11-18T00:42:05.847Z,14.63
2022-11-18T00:44:32.554Z,13.00
2022-11-18T00:46:59.327Z,14.07
2022-11-18T00:49:25.970Z,13.85
2022-11-18T00:51:52.495Z,13.30
2022-11-18T00:54:19.145Z,12.32
2022-11-18T00:56:45.721Z,13.25
2022-11-18T00:59:12.441Z,12.00
2022-11-18T01:01:39.138Z,10.10
2022-11-18T01:04:05.807Z,12.10
2022-11-18T01:06:32.331Z,12.85
2022-11-18T01:08:58.941Z,11.85
2022-11-18T01:11:44.419Z,12.35
2022-11-18T01:14:11.357Z,12.15
2022-11-18T01:16:37.974Z,11.60
2022-11-18T01:19:04.591Z,12.48
2022-11-18T01:21:31.100Z,11.50
2022-11-18T01:23:57.659Z,13.68
2022-11-18T01:26:24.214Z,12.43
2022-11-18T01:28:50.751Z,13.63
2022-11-18T01:31:19.224Z,11.88
2022-11-18T01:33:47.042Z,10.82
2022-11-18T01:36:22.864Z,11.05
2022-11-18T01:38:50.046Z,12.30
2022-11-18T01:41:18.690Z,14.18
2022-11-18T01:43:54.252Z,14.90
2022-11-18T01:46:22.623Z,13.18
2022-11-18T01:48:56.845Z,10.55
2022-11-18T01:51:29.862Z,12.95
2022-11-18T01:54:25.630Z,11.70
2022-11-18T01:57:00.224Z,11.65
2022-11-18T01:59:31.724Z,11.68
2022-11-18T02:02:01.443Z,10.45
2022-11-18T02:04:28.107Z,11.30
2022-11-18T02:06:55.563Z,11.32
2022-11-18T02:09:22.841Z,12.10
2022-11-18T02:11:54.297Z,11.00
2022-11-18T02:14:25.052Z,10.60
2022-11-18T02:17:03.898Z,10.77
2022-11-18T02:19:36.425Z,11.07
2022-11-18T02:22:08.860Z,11.15
2022-11-18T02:24:43.748Z,10.65
2022-11-18T02:27:25.550Z,10.05
2022-11-18T02:30:13.345Z,11.18
2022-11-18T02:32:57.974Z,10.10
2022-11-18T02:36:01.040Z,13.27
2022-11-18T02:38:42.749Z,11.20
2022-11-18T02:41:14.385Z,12.48
2022-11-18T02:43:48.990Z,13.38
2022-11-18T02:46:20.789Z,11.77
2022-11-18T02:48:50.868Z,11.35
2022-11-18T02:51:23.469Z,11.00
2022-11-18T02:53:51.554Z,12.10
2022-11-18T02:56:19.869Z,14.02
2022-11-18T02:58:46.617Z,13.85
2022-11-18T03:01:29.330Z,13.02
2022-11-18T03:03:56.361Z,15.40
2022-11-18T03:06:31.946Z,12.77
2022-11-18T03:09:07.243Z,14.18
2022-11-18T03:11:43.226Z,14.40
2022-11-18T03:14:43.799Z,13.27
2022-11-18T03:17:41.542Z,12.20
2022-11-18T03:20:25.353Z,14.57
2022-11-18T03:23:13.201Z,13.63
2022-11-18T03:25:51.070Z,15.25
2022-11-18T03:28:34.185Z,14.40
2022-11-18T03:31:14.761Z,15.10
2022-11-18T03:33:47.490Z,15.32
2022-11-18T03:36:16.921Z,16.98
2022-11-18T03:38:51.128Z,15.82
2022-11-18T03:41:27.199Z,18.10
2022-11-18T03:43:58.267Z,14.00
2022-11-18T03:46:48.258Z,16.20
2022-11-18T03:49:26.111Z,16.75
2022-11-18T03:51:58.434Z,17.60
2022-11-18T03:57:04.045Z,17.95
2022-11-18T03:59:40.002Z,14.27
2022-11-18T04:02:08.875Z,19.35
2022-11-18T04:04:35.534Z,18.70
2022-11-18T04:07:31.532Z,19.45
2022-11-18T04:10:11.375Z,19.17
2022-11-18T04:12:46.876Z,17.10
2022-11-18T04:15:14.394Z,17.85
2022-11-18T04:17:42.976Z,19.52
2022-11-18T04:20:17.015Z,17.23
2022-11-18T04:22:44.166Z,19.42
2022-11-18T04:25:11.459Z,17.17
2022-11-18T04:27:38.310Z,18.02
2022-11-18T04:30:06.370Z,19.25
2022-11-18T04:32:33.734Z,21.48
2022-11-18T04:35:00.382Z,22.05
2022-11-18T04:37:27.080Z,19.08
2022-11-18T04:39:53.652Z,22.08
2022-11-18T04:42:20.397Z,19.05
2022-11-18T04:44:46.971Z,18.98
2022-11-18T04:47:13.659Z,20.30
2022-11-18T04:49:40.238Z,21.73
2022-11-18T04:52:07.019Z,18.02
2022-11-18T04:54:33.711Z,20.98
2022-11-18T04:57:00.619Z,17.35
2022-11-18T04:59:29.079Z,18.27
2022-11-18T05:01:56.506Z,19.90
2022-11-18T05:04:25.823Z,21.80
2022-11-18T05:06:53.010Z,18.95
2022-11-18T05:09:20.557Z,22.85
2022-11-18T05:12:06.136Z,21.70
2022-11-18T05:14:33.072Z,16.92
2022-11-18T05:17:01.351Z,20.10
2022-11-18T05:19:28.084Z,21.25
2022-11-18T05:21:54.707Z,21.42
2022-11-18T05:24:23.970Z,18.58
2022-11-18T05:26:52.062Z,18.60
2022-11-18T05:29:20.181Z,19.95
2022-11-18T05:31:47.962Z,22.67
2022-11-18T05:34:15.471Z,22.55
2022-11-18T05:36:42.110Z,20.65
2022-11-18T05:39:09.143Z,27.27
2022-11-18T05:41:54.986Z,23.67
2022-11-18T05:44:21.667Z,19.77
2022-11-18T05:46:48.202Z,22.80
2022-11-18T05:49:15.319Z,21.60
2022-11-18T05:51:42.011Z,18.42
2022-11-18T05:54:10.146Z,19.27
2022-11-18T05:56:41.690Z,21.77
2022-11-18T05:59:08.270Z,20.75
2022-11-18T06:01:40.948Z,21.88
2022-11-18T06:04:16.026Z,20.98
2022-11-18T06:06:44.745Z,21.00
2022-11-18T06:09:13.564Z,20.85
2022-11-18T06:11:50.899Z,22.90
2022-11-18T06:14:27.276Z,22.95
2022-11-18T06:16:58.510Z,23.27
2022-11-18T06:19:26.004Z,23.15
2022-11-18T06:21:53.270Z,27.08
2022-11-18T06:24:20.210Z,27.25
2022-11-18T06:26:47.713Z,26.02
2022-11-18T06:29:22.894Z,26.75
2022-11-18T06:31:51.124Z,28.00
2022-11-18T06:34:17.864Z,27.67
2022-11-18T06:36:44.514Z,21.60
2022-11-18T06:39:11.291Z,22.73
2022-11-18T06:41:37.907Z,19.15
2022-11-18T06:44:04.482Z,20.42
2022-11-18T06:46:49.737Z,22.20
2022-11-18T06:49:17.244Z,19.77
2022-11-18T06:51:43.882Z,20.55
2022-11-18T06:54:11.236Z,21.73
2022-11-18T06:56:38.017Z,20.23
2022-11-18T06:59:04.785Z,20.38
2022-11-18T07:01:34.960Z,18.20
2022-11-18T07:04:02.114Z,20.48
2022-11-18T07:08:57.386Z,24.83
2022-11-18T07:11:26.136Z,28.15
2022-11-18T07:13:53.411Z,25.90
2022-11-18T07:16:22.676Z,19.10
2022-11-18T07:18:50.585Z,19.00
2022-11-18T07:21:23.399Z,21.98
2022-11-18T07:23:50.379Z,18.50
2022-11-18T07:26:18.065Z,20.27
2022-11-18T07:28:45.155Z,18.70
2022-11-18T07:31:17.569Z,18.38
2022-11-18T07:33:45.314Z,17.35
2022-11-18T07:36:14.999Z,15.45
2022-11-18T07:38:42.155Z,15.77
2022-11-18T07:41:11.903Z,18.40
2022-11-18T07:43:39.553Z,15.48
2022-11-18T07:46:17.568Z,18.10
2022-11-18T07:48:45.723Z,16.92
2022-11-18T07:51:14.627Z,20.48
2022-11-18T07:53:41.647Z,18.67
2022-11-18T07:56:08.812Z,17.27
2022-11-18T07:58:36.607Z,17.77
2022-11-18T08:01:12.446Z,12.48
2022-11-18T08:03:39.535Z,14.10
2022-11-18T08:06:07.873Z,15.55
2022-11-18T08:08:35.455Z,15.32
2022-11-18T08:11:05.949Z,16.48
2022-11-18T08:13:33.407Z,18.08
2022-11-18T08:16:00.271Z,16.65
2022-11-18T08:18:28.951Z,20.25
2022-11-18T08:20:55.575Z,20.63
2022-11-18T08:23:23.445Z,16.33
2022-11-18T08:25:52.667Z,14.48
2022-11-18T08:28:19.170Z,16.42
2022-11-18T08:30:45.978Z,18.02
2022-11-18T08:33:12.495Z,19.05
2022-11-18T08:35:39.023Z,18.67
2022-11-18T08:38:05.538Z,25.00
2022-11-18T08:40:33.914Z,40.58
2022-11-18T08:43:00.464Z,18.05
2022-11-18T08:45:27.050Z,21.23
2022-11-18T08:47:53.576Z,16.80
2022-11-18T08:50:20.294Z,16.08
2022-11-18T08:52:46.848Z,17.60
2022-11-18T08:55:13.460Z,17.40
2022-11-18T08:57:40.066Z,14.32
2022-11-18T09:00:08.235Z,20.90
2022-11-18T09:02:34.727Z,20.98
2022-11-18T09:05:01.369Z,16.27
2022-11-18T09:07:28.214Z,16.05
2022-11-18T09:09:54.943Z,18.05
2022-11-18T09:12:21.635Z,16.10
2022-11-18T09:17:35.535Z,16.35
2022-11-18T09:21:23.362Z,13.90
2022-11-18T09:23:49.969Z,13.52
2022-11-18T09:26:19.210Z,14.80
2022-11-18T09:28:45.855Z,15.60
2022-11-18T09:31:14.303Z,15.20
2022-11-18T09:33:41.808Z,14.85
2022-11-18T09:36:14.555Z,13.05
2022-11-18T09:38:41.466Z,11.73
2022-11-18T09:41:45.183Z,13.35
2022-11-18T09:44:30.704Z,12.13
2022-11-18T09:47:09.302Z,12.98
2022-11-18T09:49:38.426Z,12.88
2022-11-18T09:52:11.508Z,14.55
2022-11-18T09:54:39.131Z,12.57
2022-11-18T09:57:25.652Z,13.82
2022-11-18T09:59:53.316Z,14.50
2022-11-18T10:02:30.176Z,16.30
2022-11-18T10:05:02.134Z,13.50
2022-11-18T10:07:44.180Z,10.68
2022-11-18T10:10:19.428Z,14.18
2022-11-18T10:12:54.806Z,12.75
2022-11-18T10:15:46.467Z,13.90
2022-11-18T10:21:01.557Z,23.63
2022-11-18T10:23:36.536Z,15.77
2022-11-18T10:26:03.145Z,14.30
2022-11-18T10:28:31.218Z,14.52
2022-11-18T10:31:13.622Z,16.40
2022-11-18T10:33:40.249Z,15.32
2022-11-18T10:36:17.523Z,15.48
2022-11-18T10:38:49.774Z,16.50
2022-11-18T10:41:20.505Z,14.77
2022-11-18T10:43:54.948Z,17.48
2022-11-18T10:46:39.233Z,13.25
2022-11-18T10:49:08.599Z,17.35
2022-11-18T10:51:43.598Z,19.63
2022-11-18T10:54:21.198Z,17.50
2022-11-18T10:57:41.770Z,14.40
2022-11-18T11:00:34.034Z,18.13
2022-11-18T11:04:59.679Z,16.25
2022-11-18T11:07:27.771Z,14.98
2022-11-18T11:10:17.883Z,15.13
2022-11-18T11:13:12.762Z,16.30
2022-11-18T11:15:46.131Z,24.58
2022-11-18T11:18:41.643Z,26.83
2022-11-18T11:21:25.606Z,24.20
2022-11-18T11:23:52.261Z,30.00
2022-11-18T11:29:11.466Z,25.77
2022-11-18T11:34:44.631Z,34.05
2022-11-18T11:37:40.439Z,36.33
2022-11-18T11:42:26.527Z,26.92
2022-11-18T11:45:04.931Z,28.85
2022-11-18T11:48:06.822Z,27.30
2022-11-18T11:51:05.064Z,26.03
2022-11-18T11:54:07.275Z,25.58
2022-11-18T11:56:51.073Z,27.15
2022-11-18T11:59:28.192Z,29.92
2022-11-18T12:04:35.150Z,28.80
2022-11-18T12:07:04.450Z,26.33
2022-11-18T12:09:33.688Z,27.10
2022-11-18T12:12:38.564Z,28.83
2022-11-18T12:15:16.901Z,26.65
2022-11-18T12:18:00.383Z,20.58
2022-11-18T12:20:47.006Z,26.63
2022-11-18T12:23:23.300Z,26.35
2022-11-18T12:28:24.033Z,25.92
2022-11-18T12:30:51.263Z,27.42
2022-11-18T12:33:18.391Z,27.65
2022-11-18T12:35:51.617Z,28.15
2022-11-18T12:38:30.802Z,25.33
2022-11-18T12:40:57.450Z,31.23
2022-11-18T12:43:45.715Z,28.40
2022-11-18T12:46:34.988Z,31.33
2022-11-18T12:49:23.263Z,23.08
2022-11-18T12:51:51.053Z,33.75
2022-11-18T12:54:31.784Z,30.52
2022-11-18T12:57:18.795Z,31.92
2022-11-18T12:59:45.683Z,32.00
2022-11-18T13:02:12.120Z,32.13
2022-11-18T13:04:45.050Z,27.27
2022-11-18T13:07:35.434Z,30.48
2022-11-18T13:10:11.801Z,29.38
2022-11-18T13:12:40.043Z,26.95
2022-11-18T13:15:30.684Z,27.70
2022-11-18T13:18:13.604Z,24.80
2022-11-18T13:20:42.060Z,21.25
2022-11-18T13:23:33.365Z,22.58
2022-11-18T13:26:06.138Z,21.90
2022-11-18T13:28:43.011Z,23.42
2022-11-18T13:31:21.693Z,24.10
2022-11-18T13:33:50.687Z,24.27
2022-11-18T13:36:25.985Z,24.83
2022-11-18T13:38:56.880Z,22.17
2022-11-18T13:41:24.667Z,23.17
2022-11-18T13:43:54.025Z,26.17
2022-11-18T13:46:22.304Z,23.40
2022-11-18T13:48:59.060Z,27.48
2022-11-18T13:51:26.484Z,26.10
2022-11-18T13:55:19.768Z,23.27
2022-11-18T13:57:56.206Z,26.02
2022-11-18T14:00:26.503Z,23.15
2022-11-18T14:02:59.963Z,28.77
2022-11-18T14:05:27.202Z,26.58
2022-11-18T14:08:03.986Z,26.50
2022-11-18T14:10:39.293Z,23.80
2022-11-18T14:13:17.762Z,26.80
2022-11-18T14:15:45.940Z,36.25
2022-11-18T14:18:26.599Z,23.52
2022-11-18T14:20:54.766Z,22.17
2022-11-18T14:23:27.771Z,29.42
2022-11-18T14:25:55.143Z,26.67
2022-11-18T14:28:26.992Z,24.60
2022-11-18T14:30:56.599Z,22.33
2022-11-18T14:33:28.658Z,25.63
2022-11-18T14:36:17.881Z,31.70
2022-11-18T14:41:49.028Z,24.05
2022-11-18T14:44:20.171Z,26.17
2022-11-18T14:46:57.255Z,26.75
2022-11-18T14:49:25.962Z,25.88
2022-11-18T14:54:26.292Z,28.13
2022-11-18T14:56:57.380Z,24.55
2022-11-18T14:59:24.052Z,29.35
2022-11-18T15:01:50.793Z,25.00
2022-11-18T15:04:18.171Z,29.05
2022-11-18T15:06:45.294Z,26.33
2022-11-18T15:09:12.214Z,26.08
2022-11-18T15:11:39.159Z,26.60
2022-11-18T15:14:05.961Z,31.63
2022-11-18T15:16:33.984Z,28.33
2022-11-18T15:19:03.193Z,29.27
2022-11-18T15:21:30.101Z,33.08
2022-11-18T15:23:56.823Z,29.40
2022-11-18T15:26:35.634Z,30.10
2022-11-18T15:29:02.307Z,31.40
2022-11-18T15:31:28.871Z,29.92
2022-11-18T15:33:55.683Z,28.65
2022-11-18T15:36:24.167Z,25.48
2022-11-18T15:38:52.476Z,22.50
2022-11-18T15:41:27.291Z,23.17
2022-11-18T15:43:56.270Z,26.13
2022-11-18T15:46:24.967Z,24.58
2022-11-18T15:48:53.486Z,24.17
2022-11-18T15:51:20.696Z,26.45
2022-11-18T15:53:47.363Z,27.10
2022-11-18T15:56:14.690Z,24.15
2022-11-18T15:58:42.869Z,24.00
2022-11-18T16:01:09.512Z,24.95
2022-11-18T16:03:36.447Z,24.38
2022-11-18T16:06:03.715Z,24.38
2022-11-18T16:08:30.870Z,25.98
2022-11-18T16:11:16.819Z,23.50
2022-11-18T16:13:43.762Z,20.00
2022-11-18T16:16:25.464Z,22.70
2022-11-18T16:18:56.249Z,21.58
2022-11-18T16:21:23.487Z,27.20
2022-11-18T16:23:50.217Z,22.63
2022-11-18T16:26:17.367Z,24.23
2022-11-18T16:28:44.166Z,23.13
2022-11-18T16:31:29.467Z,24.02
2022-11-18T16:33:58.195Z,20.13
2022-11-18T16:36:28.177Z,23.23
2022-11-18T16:38:54.765Z,23.38
2022-11-18T16:43:49.135Z,22.83
2022-11-18T16:46:15.880Z,20.42
2022-11-18T16:48:42.390Z,20.10
2022-11-18T16:51:21.478Z,20.95
2022-11-18T16:53:56.512Z,21.15
2022-11-18T16:56:27.121Z,21.25
2022-11-18T16:59:02.154Z,23.20
2022-11-18T17:01:30.025Z,21.00
2022-11-18T17:03:57.650Z,20.80
2022-11-18T17:06:25.070Z,22.25
2022-11-18T17:08:52.495Z,22.30
2022-11-18T17:11:19.775Z,26.67
2022-11-18T17:13:46.403Z,23.10
2022-11-18T17:16:15.888Z,22.23
2022-11-18T17:18:43.103Z,25.67
2022-11-18T17:21:12.722Z,24.83
2022-11-18T17:23:40.687Z,22.45
2022-11-18T17:26:08.495Z,23.48
2022-11-18T17:28:37.335Z,24.13
2022-11-18T17:31:15.592Z,25.23
2022-11-18T17:33:42.915Z,23.23
2022-11-18T17:36:15.243Z,23.00
2022-11-18T17:41:32.891Z,26.55
2022-11-18T17:44:00.170Z,21.17
2022-11-18T17:46:27.082Z,21.40
2022-11-18T17:48:57.699Z,25.63
2022-11-18T17:51:25.446Z,25.15
2022-11-18T17:53:52.583Z,27.73
2022-11-18T17:56:19.759Z,27.02
2022-11-18T17:58:46.867Z,24.98
2022-11-18T18:01:15.602Z,22.50
2022-11-18T18:03:42.807Z,24.60
2022-11-18T18:06:13.499Z,23.85
2022-11-18T18:08:40.752Z,26.65
2022-11-18T18:11:13.420Z,20.73
2022-11-18T18:13:59.559Z,24.55
2022-11-18T18:16:27.178Z,25.48
2022-11-18T18:18:54.101Z,27.67
2022-11-18T18:21:20.634Z,20.20
2022-11-18T18:23:47.703Z,19.77
2022-11-18T18:26:14.974Z,20.63
2022-11-18T18:28:41.480Z,19.05
2022-11-18T18:31:10.597Z,22.17
2022-11-18T18:33:39.831Z,22.27
2022-11-18T18:36:09.633Z,20.52
2022-11-18T18:38:38.491Z,19.55
2022-11-18T18:41:12.194Z,17.95
2022-11-18T18:43:39.343Z,18.67
2022-11-18T18:46:29.385Z,19.00
2022-11-18T18:48:59.376Z,23.58
2022-11-18T18:51:27.748Z,18.35
2022-11-18T18:53:58.925Z,19.30
2022-11-18T18:56:26.611Z,16.80
2022-11-18T18:58:53.795Z,19.83
2022-11-18T19:01:20.991Z,21.27
2022-11-18T19:03:48.270Z,22.63
2022-11-18T19:06:51.689Z,18.73
2022-11-18T19:09:15.250Z,16.10
2022-11-18T19:12:01.007Z,17.85
2022-11-18T19:14:28.190Z,18.05
2022-11-18T19:16:55.502Z,18.02
2022-11-18T19:19:46.125Z,21.70
2022-11-18T19:22:14.711Z,18.58
2022-11-18T19:27:29.402Z,19.48
2022-11-18T19:29:56.010Z,22.27
2022-11-18T19:32:23.323Z,23.17
2022-11-18T19:34:49.894Z,21.50
2022-11-18T19:37:17.004Z,19.95
2022-11-18T19:39:43.910Z,21.70
2022-11-18T19:42:12.904Z,20.60
2022-11-18T19:44:39.520Z,18.60
2022-11-18T19:47:06.489Z,20.52
2022-11-18T19:49:33.110Z,18.35
2022-11-18T19:51:59.639Z,19.85
2022-11-18T19:54:28.879Z,16.38
2022-11-18T19:56:55.427Z,18.55
2022-11-18T19:59:23.160Z,19.05
2022-11-18T20:01:49.761Z,15.60
2022-11-18T20:04:19.507Z,16.20
2022-11-18T20:06:46.074Z,15.13
2022-11-18T20:09:13.295Z,16.80
2022-11-18T20:11:40.168Z,15.75
2022-11-18T20:14:08.262Z,16.85
2022-11-18T20:16:36.938Z,16.70
2022-11-18T20:19:09.441Z,16.95
2022-11-18T20:21:39.030Z,15.13
2022-11-18T20:24:07.338Z,16.10
2022-11-18T20:26:37.278Z,12.93
2022-11-18T20:29:05.144Z,15.07
2022-11-18T20:31:35.234Z,13.70
2022-11-18T20:34:04.492Z,12.45
2022-11-18T20:36:33.777Z,15.63
2022-11-18T20:39:05.879Z,12.90
2022-11-18T20:41:32.814Z,15.10
2022-11-18T20:44:00.799Z,14.73
2022-11-18T20:46:30.855Z,13.98
2022-11-18T20:48:57.559Z,12.77
2022-11-18T20:51:26.541Z,11.55
2022-11-18T20:53:55.816Z,13.35
2022-11-18T20:56:27.504Z,13.45
2022-11-18T20:58:56.751Z,10.18
2022-11-18T21:01:26.336Z,9.05
2022-11-18T21:03:55.376Z,11.48
2022-11-18T21:06:24.088Z,10.77
2022-11-18T21:08:58.672Z,11.07
2022-11-18T21:11:26.594Z,7.28
2022-11-18T21:14:11.931Z,9.43
2022-11-18T21:16:40.163Z,9.88
2022-11-18T21:19:06.791Z,12.02
2022-11-18T21:21:45.883Z,10.88
2022-11-18T21:24:14.687Z,11.65
2022-11-18T21:26:41.647Z,10.43
2022-11-18T21:29:10.472Z,10.98
2022-11-18T21:31:37.388Z,9.90
2022-11-18T21:34:04.807Z,12.00
2022-11-18T21:36:31.643Z,13.23
2022-11-18T21:39:00.052Z,12.75
2022-11-18T21:46:35.698Z,12.45
2022-11-18T21:49:03.352Z,16.52
2022-11-18T21:51:32.039Z,15.18
2022-11-18T21:53:59.475Z,14.40
2022-11-18T21:56:31.736Z,13.20
2022-11-18T21:59:00.946Z,14.50
2022-11-18T22:01:30.588Z,15.65
2022-11-18T22:03:59.567Z,14.98
2022-11-18T22:06:29.686Z,16.15
2022-11-18T22:08:56.556Z,21.83
2022-11-18T22:11:25.131Z,22.58
2022-11-18T22:13:52.916Z,19.05
2022-11-18T22:16:22.749Z,17.40
2022-11-18T22:18:56.473Z,15.00
2022-11-18T22:21:26.379Z,15.98
2022-11-18T22:23:56.998Z,15.25
2022-11-18T22:26:23.604Z,26.20
2022-11-18T22:28:54.783Z,26.38
2022-11-18T22:31:23.466Z,17.73
2022-11-18T22:33:51.772Z,14.45
2022-11-18T22:36:20.710Z,15.63
2022-11-18T22:38:47.513Z,17.20
2022-11-18T22:41:38.131Z,16.30
2022-11-18T22:44:08.020Z,16.88
2022-11-18T22:46:40.299Z,16.15
2022-11-18T22:49:08.024Z,15.65
2022-11-18T22:51:35.938Z,18.20
2022-11-18T22:56:50.405Z,15.27
2022-11-18T22:59:17.377Z,16.13
2022-11-18T23:01:44.236Z,17.58
2022-11-18T23:04:10.839Z,16.15
2022-11-18T23:06:37.495Z,14.25
2022-11-18T23:09:04.143Z,16.92
2022-11-18T23:11:49.438Z,15.93
2022-11-18T23:14:16.419Z,15.10
2022-11-18T23:16:43.380Z,15.30
2022-11-18T23:19:12.831Z,15.43
2022-11-18T23:21:39.945Z,16.10
2022-11-18T23:24:06.788Z,15.68
2022-11-18T23:26:33.511Z,16.80
2022-11-18T23:29:00.054Z,16.45
2022-11-18T23:31:27.393Z,15.43
2022-11-18T23:33:56.773Z,15.88
2022-11-18T23:36:25.039Z,16.33
2022-11-18T23:38:53.421Z,13.90
2022-11-18T23:41:20.918Z,16.92
2022-11-18T23:43:48.685Z,15.27
2022-11-18T23:46:17.072Z,15.23
2022-11-18T23:48:44.283Z,13.10
2022-11-18T23:51:20.346Z,14.05
2022-11-18T23:53:48.885Z,12.88
2022-11-18T23:56:17.159Z,14.07
2022-11-18T23:58:45.766Z,15.00
